Time;durP1;ratioP1;P1;durP2;ratioP2;P2;SDS_P1;SDS_P2;PMS_P1;PMS_P2;Temp;Humidity;BMP_temperature;BMP_pressure;BME280_temperature;BME280_humidity;BME280_pressure;Samples;Min_cycle;Max_cycle;Signal;HPM_P1;HPM_P2
2024/04/10 00:02:17;;;;;;;6.35;1.30;;;5.70;99.90;;;;;;5480944;26;20006;-79
2024/04/10 00:04:47;;;;;;;2.15;1.30;;;5.70;99.90;;;;;;5481313;26;20009;-80
2024/04/10 00:07:13;;;;;;;3.85;1.48;;;5.50;99.90;;;;;;5482387;26;20066;-80
2024/04/10 00:09:39;;;;;;;4.15;1.30;;;5.40;99.90;;;;;;5482588;26;20074;-79
2024/04/10 00:12:04;;;;;;;5.20;1.50;;;5.40;99.90;;;;;;5479969;26;19998;-79
2024/04/10 00:14:32;;;;;;;8.45;1.95;;;5.30;99.90;;;;;;5482193;26;20424;-79
2024/04/10 00:16:58;;;;;;;6.80;1.48;;;5.30;99.90;;;;;;5481587;26;19994;-79
2024/04/10 00:19:24;;;;;;;3.67;1.25;;;5.20;99.90;;;;;;5481717;26;19995;-80
2024/04/10 00:21:53;;;;;;;3.47;1.90;;;5.10;99.90;;;;;;5482461;26;20374;-80
2024/04/10 00:24:19;;;;;;;2.28;1.20;;;5.10;99.90;;;;;;5485320;26;20005;-80
2024/04/10 00:26:51;;;;;;;7.03;1.90;;;5.10;99.90;;;;;;5484029;26;19994;-79
2024/04/10 00:29:17;;;;;;;7.88;1.60;;;5.10;99.90;;;;;;5484561;26;20002;-80
2024/04/10 00:31:45;;;;;;;8.10;1.60;;;5.00;99.90;;;;;;5483093;26;20010;-82
2024/04/10 00:34:11;;;;;;;5.38;1.58;;;5.20;99.90;;;;;;5484646;26;20010;-80
2024/04/10 00:36:37;;;;;;;7.32;1.80;;;5.10;99.90;;;;;;5485057;26;20009;-78
2024/04/10 00:39:03;;;;;;;3.47;1.83;;;5.10;99.90;;;;;;5485459;26;19996;-80
2024/04/10 00:41:29;;;;;;;5.28;1.67;;;5.10;99.90;;;;;;5471200;26;20500;-78
2024/04/10 00:43:55;;;;;;;14.85;1.92;;;5.00;99.90;;;;;;5484372;26;19994;-79
2024/04/10 00:46:24;;;;;;;5.03;1.88;;;5.00;99.90;;;;;;5484493;26;20459;-80
2024/04/10 00:48:50;;;;;;;7.20;1.75;;;5.00;99.90;;;;;;5473827;26;20452;-79
2024/04/10 00:51:21;;;;;;;7.63;1.65;;;5.00;99.90;;;;;;5470395;26;20424;-79
2024/04/10 00:53:47;;;;;;;10.48;1.58;;;5.00;99.90;;;;;;5485094;26;20013;-78
2024/04/10 00:56:13;;;;;;;5.95;1.52;;;5.10;99.90;;;;;;5484865;26;20002;-78
2024/04/10 00:58:40;;;;;;;6.80;1.73;;;5.10;99.90;;;;;;5484685;26;20013;-78
2024/04/10 01:01:06;;;;;;;5.32;1.90;;;5.10;99.90;;;;;;5483329;26;20405;-78
2024/04/10 01:03:33;;;;;;;8.80;1.88;;;5.10;99.90;;;;;;5484089;26;20034;-78
2024/04/10 01:06:00;;;;;;;4.68;1.30;;;5.00;99.90;;;;;;5484793;26;20448;-78
2024/04/10 01:08:28;;;;;;;6.55;1.80;;;5.00;99.90;;;;;;5484435;26;20009;-78
2024/04/10 01:10:54;;;;;;;8.98;1.42;;;5.00;99.90;;;;;;5484795;26;20325;-78
2024/04/10 01:13:20;;;;;;;5.72;1.40;;;4.90;99.90;;;;;;5483839;26;20005;-77
2024/04/10 01:15:45;;;;;;;4.13;1.85;;;4.70;99.90;;;;;;5484587;26;20066;-78
2024/04/10 01:18:12;;;;;;;6.25;1.80;;;4.50;99.90;;;;;;5481182;26;20002;-78
2024/04/10 01:20:37;;;;;;;6.45;1.40;;;4.40;99.90;;;;;;5484368;26;20012;-78
2024/04/10 01:23:04;;;;;;;6.90;1.27;;;4.30;99.90;;;;;;5484264;26;19998;-78
2024/04/10 01:25:29;;;;;;;17.60;1.75;;;4.30;99.90;;;;;;5483957;26;20036;-77
2024/04/10 01:27:56;;;;;;;4.72;1.42;;;4.30;99.90;;;;;;5484079;26;20006;-78
2024/04/10 01:30:21;;;;;;;8.05;1.50;;;4.40;99.90;;;;;;5483897;26;20013;-79
2024/04/10 01:32:47;;;;;;;6.72;1.60;;;4.30;99.90;;;;;;5482408;26;19993;-79
2024/04/10 01:35:13;;;;;;;3.17;1.90;;;4.30;99.90;;;;;;5487785;26;20620;-80
2024/04/10 01:37:38;;;;;;;4.60;2.22;;;4.30;99.90;;;;;;5488933;26;20026;-81
2024/04/10 01:40:04;;;;;;;5.10;1.90;;;4.20;99.90;;;;;;5486752;26;19998;-80
2024/04/10 01:42:31;;;;;;;4.07;1.95;;;4.30;99.90;;;;;;5484687;26;20006;-80
2024/04/10 01:44:58;;;;;;;7.93;1.70;;;4.30;99.90;;;;;;5481796;26;20462;-79
2024/04/10 01:47:24;;;;;;;6.90;1.80;;;4.20;99.90;;;;;;5481921;26;19994;-80
2024/04/10 01:49:50;;;;;;;6.72;1.98;;;4.20;99.90;;;;;;5481623;26;20013;-80
2024/04/10 01:52:16;;;;;;;3.83;1.85;;;4.10;99.90;;;;;;5480491;26;20436;-79
2024/04/10 01:54:41;;;;;;;2.38;1.23;;;4.10;99.90;;;;;;5479388;26;19994;-79
2024/04/10 01:57:07;;;;;;;8.55;1.67;;;3.80;99.90;;;;;;5479704;26;20013;-80
2024/04/10 01:59:32;;;;;;;4.40;1.55;;;3.50;99.90;;;;;;5479892;26;19990;-80
2024/04/10 02:01:58;;;;;;;4.53;1.80;;;3.30;99.90;;;;;;5478591;26;20070;-80
2024/04/10 02:04:24;;;;;;;3.60;1.80;;;3.40;99.90;;;;;;5478417;26;20002;-81
2024/04/10 02:06:49;;;;;;;7.60;1.77;;;3.60;99.90;;;;;;5480528;26;20021;-79
2024/04/10 02:09:15;;;;;;;8.00;1.88;;;3.60;99.90;;;;;;5479777;26;20013;-79
2024/04/10 02:11:41;;;;;;;5.60;1.85;;;3.70;99.90;;;;;;5483062;26;19998;-79
2024/04/10 02:14:07;;;;;;;8.63;2.00;;;3.70;99.90;;;;;;5480835;26;19991;-78
2024/04/10 02:16:33;;;;;;;6.80;1.55;;;3.90;99.90;;;;;;5478734;26;20049;-78
2024/04/10 02:18:59;;;;;;;10.80;2.17;;;3.90;99.90;;;;;;5479606;26;20036;-79
2024/04/10 02:21:24;;;;;;;6.07;2.17;;;3.80;99.90;;;;;;5479611;26;20001;-79
2024/04/10 02:23:50;;;;;;;1.95;1.70;;;3.70;99.90;;;;;;5479910;26;20138;-79
2024/04/10 02:26:17;;;;;;;3.58;1.95;;;3.50;99.90;;;;;;5477576;26;20013;-81
2024/04/10 02:28:43;;;;;;;6.43;1.50;;;3.50;99.90;;;;;;5480315;26;19998;-81
2024/04/10 02:31:09;;;;;;;2.50;1.80;;;3.50;99.90;;;;;;5481747;26;20001;-78
2024/04/10 02:33:38;;;;;;;6.63;1.85;;;3.60;99.90;;;;;;5481653;26;20604;-81
2024/04/10 02:36:08;;;;;;;3.60;1.80;;;3.60;99.90;;;;;;5482905;26;20070;-80
2024/04/10 02:38:35;;;;;;;7.63;2.17;;;3.60;99.90;;;;;;5482616;26;20002;-81
2024/04/10 02:41:01;;;;;;;5.05;2.03;;;3.40;99.90;;;;;;5482254;26;20452;-81
2024/04/10 02:43:27;;;;;;;5.50;1.73;;;3.50;99.90;;;;;;5480285;26;19994;-81
2024/04/10 02:45:56;;;;;;;7.28;2.15;;;3.50;99.90;;;;;;5482474;26;19994;-80
2024/04/10 02:48:22;;;;;;;6.15;2.00;;;3.20;99.90;;;;;;5480534;26;19994;-80
2024/04/10 02:50:48;;;;;;;11.30;1.80;;;3.10;99.90;;;;;;5482488;26;20006;-81
2024/04/10 02:53:14;;;;;;;3.60;1.55;;;3.00;99.90;;;;;;5482430;26;20519;-81
2024/04/10 02:55:44;;;;;;;6.40;1.67;;;3.00;99.90;;;;;;5482333;26;20009;-79
2024/04/10 02:58:13;;;;;;;7.05;1.70;;;3.00;99.90;;;;;;5481721;26;20004;-81
2024/04/10 03:00:51;;;;;;;4.93;1.70;;;2.90;99.90;;;;;;5481100;26;20447;-81
2024/04/10 03:03:17;;;;;;;8.30;2.08;;;2.90;99.90;;;;;;5480616;26;20010;-82
2024/04/10 03:05:45;;;;;;;22.85;2.40;;;3.00;99.90;;;;;;5482448;26;19998;-81
2024/04/10 03:08:11;;;;;;;7.95;1.80;;;3.30;99.90;;;;;;5482058;26;20026;-81
2024/04/10 03:10:38;;;;;;;13.65;2.53;;;3.40;99.90;;;;;;5482119;26;20002;-82
2024/04/10 03:13:04;;;;;;;9.90;1.90;;;3.60;99.90;;;;;;5481813;26;20038;-81
2024/04/10 03:15:30;;;;;;;13.23;2.70;;;3.70;99.90;;;;;;5483037;26;20005;-82
2024/04/10 03:17:56;;;;;;;6.38;2.00;;;3.60;99.90;;;;;;5484316;26;20004;-82
2024/04/10 03:20:21;;;;;;;9.00;2.22;;;3.40;99.90;;;;;;5485510;26;20354;-81
2024/04/10 03:22:47;;;;;;;4.57;1.95;;;3.40;99.90;;;;;;5485536;26;20002;-81
2024/04/10 03:25:13;;;;;;;6.28;2.13;;;3.20;99.90;;;;;;5485301;26;20002;-81
2024/04/10 03:27:43;;;;;;;5.53;2.00;;;3.10;99.90;;;;;;5485310;26;19994;-81
2024/04/10 03:30:10;;;;;;;9.52;3.20;;;3.20;99.90;;;;;;5484740;26;20002;-81
2024/04/10 03:32:37;;;;;;;11.90;3.35;;;3.40;99.90;;;;;;5483312;26;19998;-80
2024/04/10 03:35:04;;;;;;;8.02;2.80;;;3.40;99.90;;;;;;5485353;26;20034;-81
2024/04/10 03:37:30;;;;;;;11.32;3.40;;;3.30;99.90;;;;;;5485699;26;20043;-82
2024/04/10 03:39:56;;;;;;;7.15;2.72;;;3.20;99.90;;;;;;5485734;26;20006;-81
2024/04/10 03:42:21;;;;;;;9.30;2.08;;;3.20;99.90;;;;;;5485261;26;19998;-81
2024/04/10 03:44:47;;;;;;;3.08;1.52;;;3.30;99.90;;;;;;5485168;26;20005;-80
2024/04/10 03:47:13;;;;;;;4.38;1.70;;;3.30;99.90;;;;;;5484016;26;20005;-78
2024/04/10 03:49:39;;;;;;;5.55;2.00;;;3.30;99.90;;;;;;5458136;26;20022;-81
2024/04/10 03:52:05;;;;;;;4.03;1.83;;;3.40;99.90;;;;;;5484110;26;20014;-80
2024/04/10 03:54:31;;;;;;;7.10;1.88;;;3.40;99.90;;;;;;5481199;26;20034;-80
2024/04/10 03:56:56;;;;;;;13.10;2.58;;;3.40;99.90;;;;;;5481785;26;20324;-81
2024/04/10 03:59:22;;;;;;;3.95;1.77;;;3.40;99.90;;;;;;5480699;26;20012;-81
2024/04/10 04:01:48;;;;;;;6.07;2.10;;;3.30;99.90;;;;;;5459877;26;19995;-81
2024/04/10 04:04:14;;;;;;;12.77;2.28;;;3.40;99.90;;;;;;5478324;26;20002;-80
2024/04/10 04:06:39;;;;;;;5.53;2.15;;;3.40;99.90;;;;;;5485876;26;19998;-81
2024/04/10 04:09:07;;;;;;;8.65;2.45;;;3.40;99.90;;;;;;5484555;26;20042;-80
2024/04/10 04:11:34;;;;;;;5.93;2.08;;;3.40;99.90;;;;;;5484515;26;19997;-78
2024/04/10 04:14:00;;;;;;;10.05;2.50;;;3.40;99.90;;;;;;5481073;26;19994;-81
2024/04/10 04:16:25;;;;;;;11.70;2.30;;;3.30;99.90;;;;;;5471031;26;19994;-80
2024/04/10 04:18:51;;;;;;;2.85;1.88;;;3.30;99.90;;;;;;5459232;26;20523;-79
2024/04/10 04:21:17;;;;;;;7.03;1.77;;;3.30;99.90;;;;;;5484494;26;19994;-79
2024/04/10 04:23:45;;;;;;;9.02;2.17;;;3.20;99.90;;;;;;5462713;26;20026;-79
2024/04/10 04:26:11;;;;;;;13.55;2.38;;;3.10;99.90;;;;;;5480664;26;20006;-80
2024/04/10 04:28:37;;;;;;;9.95;2.00;;;3.10;99.90;;;;;;5484591;26;20009;-79
2024/04/10 04:31:02;;;;;;;10.70;2.33;;;3.00;99.90;;;;;;5484209;26;20078;-78
2024/04/10 04:33:28;;;;;;;8.35;2.00;;;3.10;99.90;;;;;;5480305;26;20028;-79
2024/04/10 04:35:54;;;;;;;16.38;2.53;;;3.10;99.90;;;;;;5483017;26;20404;-78
2024/04/10 04:38:20;;;;;;;5.22;2.22;;;3.20;99.90;;;;;;5483149;26;21417;-77
2024/04/10 04:40:45;;;;;;;11.13;2.40;;;3.30;99.90;;;;;;5479808;26;20009;-79
2024/04/10 04:43:11;;;;;;;5.88;2.40;;;3.40;99.90;;;;;;5477819;26;19998;-79
2024/04/10 04:45:38;;;;;;;10.82;2.13;;;3.40;99.90;;;;;;5480090;26;20002;-79
2024/04/10 04:48:08;;;;;;;14.07;3.42;;;3.40;99.90;;;;;;5477484;26;20005;-81
2024/04/10 04:50:35;;;;;;;9.80;2.40;;;3.50;99.90;;;;;;5480934;26;20006;-78
2024/04/10 04:53:00;;;;;;;21.98;3.80;;;3.70;99.90;;;;;;5479759;26;20026;-78
2024/04/10 04:55:26;;;;;;;7.00;2.13;;;3.70;99.90;;;;;;5479613;26;20036;-77
2024/04/10 04:57:52;;;;;;;8.57;2.15;;;3.90;99.90;;;;;;5480126;26;20008;-79
2024/04/10 05:00:20;;;;;;;2.97;1.95;;;3.90;99.90;;;;;;5479728;26;20798;-77
2024/04/10 05:02:49;;;;;;;10.70;2.28;;;4.00;99.90;;;;;;5480159;26;20002;-78
2024/04/10 05:05:16;;;;;;;13.98;2.97;;;4.10;99.90;;;;;;5479070;26;20005;-77
2024/04/10 05:07:43;;;;;;;7.50;2.15;;;4.10;99.90;;;;;;5481984;26;20597;-79
2024/04/10 05:10:09;;;;;;;6.00;1.70;;;4.00;99.90;;;;;;5479672;26;20064;-78
2024/04/10 05:12:38;;;;;;;19.52;2.47;;;4.10;99.90;;;;;;5482343;26;20013;-78
2024/04/10 05:15:06;;;;;;;13.27;2.00;;;4.10;99.90;;;;;;5482880;26;20033;-77
2024/04/10 05:17:31;;;;;;;10.32;2.10;;;4.20;99.90;;;;;;5480956;26;20002;-78
2024/04/10 05:19:57;;;;;;;6.15;2.20;;;4.20;99.90;;;;;;5466522;26;19999;-79
2024/04/10 05:22:23;;;;;;;20.70;2.40;;;4.40;99.90;;;;;;5480703;26;20010;-80
2024/04/10 05:24:48;;;;;;;10.70;1.70;;;4.40;99.90;;;;;;5482994;26;19998;-79
2024/04/10 05:27:25;;;;;;;12.35;2.17;;;4.50;99.90;;;;;;5482782;26;19998;-80
2024/04/10 05:29:59;;;;;;;11.43;2.03;;;4.40;99.90;;;;;;5480819;26;19994;-79
2024/04/10 05:32:26;;;;;;;7.78;2.05;;;4.50;99.90;;;;;;5481379;26;20006;-77
2024/04/10 05:34:52;;;;;;;8.02;2.08;;;4.60;99.90;;;;;;5480897;26;20017;-78
2024/04/10 05:37:19;;;;;;;14.02;2.05;;;4.70;99.90;;;;;;5481687;26;19994;-77
2024/04/10 05:39:44;;;;;;;12.20;2.30;;;4.90;99.90;;;;;;5479881;26;20005;-79
2024/04/10 05:42:10;;;;;;;13.20;1.98;;;4.90;99.90;;;;;;5481276;26;20124;-79
2024/04/10 05:44:35;;;;;;;13.02;2.15;;;5.10;99.90;;;;;;5481443;26;20007;-78
2024/04/10 05:47:01;;;;;;;13.00;2.20;;;5.20;99.90;;;;;;5482150;26;19990;-81
2024/04/10 05:49:33;;;;;;;16.20;1.98;;;5.30;99.90;;;;;;5480053;26;19994;-80
2024/04/10 05:51:58;;;;;;;8.50;1.58;;;5.40;99.90;;;;;;5477843;26;19994;-80
2024/04/10 05:54:24;;;;;;;10.40;1.60;;;5.50;99.90;;;;;;5481988;26;20688;-79
2024/04/10 05:56:51;;;;;;;11.80;1.95;;;5.50;99.90;;;;;;5484134;26;19998;-80
2024/04/10 05:59:17;;;;;;;13.45;1.65;;;5.70;99.90;;;;;;5476997;26;20475;-81
2024/04/10 06:01:42;;;;;;;9.18;2.15;;;5.90;99.90;;;;;;5494710;26;19993;-82
2024/04/10 06:04:08;;;;;;;7.22;1.83;;;5.90;99.90;;;;;;5499947;25;20002;-81
2024/04/10 06:06:34;;;;;;;9.27;1.90;;;6.00;99.90;;;;;;5485154;26;19990;-83
2024/04/10 06:09:00;;;;;;;9.18;1.83;;;6.20;99.90;;;;;;5482384;26;20006;-84
2024/04/10 06:11:27;;;;;;;10.57;2.22;;;6.30;99.90;;;;;;5465223;26;20083;-83
2024/04/10 06:13:57;;;;;;;13.23;1.92;;;6.30;99.90;;;;;;5473883;26;19998;-83
2024/04/10 06:16:23;;;;;;;8.65;2.20;;;6.30;99.90;;;;;;5482655;26;20080;-82
2024/04/10 06:18:48;;;;;;;7.20;2.53;;;6.50;99.90;;;;;;5459637;26;19998;-81
2024/04/10 06:21:14;;;;;;;11.93;2.03;;;6.60;99.90;;;;;;5481466;26;20428;-81
2024/04/10 06:23:41;;;;;;;12.65;2.35;;;6.60;99.90;;;;;;5482657;26;20013;-82
2024/04/10 06:26:07;;;;;;;11.20;1.98;;;6.70;99.90;;;;;;5479319;26;20330;-81
2024/04/10 06:28:33;;;;;;;13.27;2.20;;;6.70;99.90;;;;;;5482484;26;20009;-81
2024/04/10 06:31:03;;;;;;;8.65;1.80;;;6.90;99.90;;;;;;5482942;26;20026;-78
2024/04/10 06:33:31;;;;;;;11.80;2.40;;;6.80;99.90;;;;;;5481595;26;19994;-75
2024/04/10 06:36:03;;;;;;;10.55;2.50;;;6.80;99.90;;;;;;5483099;26;20002;-75
2024/04/10 06:38:32;;;;;;;11.43;2.67;;;6.90;94.60;;;;;;5482082;26;20009;-77
2024/04/10 06:41:00;;;;;;;9.80;2.03;;;6.90;92.80;;;;;;5481082;26;20723;-78
2024/04/10 06:43:26;;;;;;;11.18;2.00;;;7.10;92.80;;;;;;5466218;26;20074;-76
2024/04/10 06:46:00;;;;;;;11.10;2.45;;;7.20;98.50;;;;;;5482492;26;19995;-77
2024/04/10 06:48:26;;;;;;;6.85;2.80;;;7.10;81.20;;;;;;5480614;26;20107;-77
2024/04/10 06:50:59;;;;;;;9.15;2.08;;;7.20;93.50;;;;;;5485609;26;20012;-77
2024/04/10 06:53:26;;;;;;;16.40;2.03;;;7.20;90.60;;;;;;5485716;26;20010;-77
2024/04/10 06:55:58;;;;;;;8.32;2.03;;;7.30;91.00;;;;;;5486487;26;20445;-79
2024/04/10 06:58:25;;;;;;;10.35;2.80;;;7.30;86.10;;;;;;5474187;26;20018;-79
2024/04/10 07:00:58;;;;;;;6.97;1.63;;;7.60;99.90;;;;;;5465398;26;20431;-74
2024/04/10 07:03:28;;;;;;;10.32;1.80;;;7.80;40.70;;;;;;5479007;26;20012;-74
2024/04/10 07:06:06;;;;;;;21.35;2.38;;;8.00;19.90;;;;;;5485129;26;20086;-74
2024/04/10 07:08:37;;;;;;;12.98;2.33;;;8.10;1.00;;;;;;5485680;26;20002;-73
2024/04/10 07:11:11;;;;;;;13.38;2.47;;;7.90;1.00;;;;;;5484612;26;20055;-73
2024/04/10 07:13:38;;;;;;;15.43;2.28;;;7.90;8.40;;;;;;5486008;26;20053;-73
2024/04/10 07:16:04;;;;;;;11.43;2.50;;;8.00;41.70;;;;;;5483696;26;20002;-73
2024/04/10 07:18:31;;;;;;;20.02;2.58;;;8.10;22.50;;;;;;5484750;26;19994;-74
2024/04/10 07:21:09;;;;;;;15.43;2.53;;;8.20;1.00;;;;;;5485612;26;20536;-74
2024/04/10 07:23:42;;;;;;;14.27;2.13;;;8.40;1.00;;;;;;5470413;26;20012;-73
2024/04/10 07:26:13;;;;;;;16.77;2.28;;;8.40;1.00;;;;;;5484102;26;20070;-74
2024/04/10 07:28:46;;;;;;;16.55;2.42;;;8.40;1.00;;;;;;5486266;26;19998;-73
2024/04/10 07:31:13;;;;;;;18.17;3.38;;;8.40;1.00;;;;;;5485411;26;19997;-75
2024/04/10 07:33:40;;;;;;;13.32;3.00;;;8.60;23.90;;;;;;5483872;26;20078;-74
2024/04/10 07:36:20;;;;;;;14.38;2.95;;;8.50;99.90;;;;;;5479606;26;20045;-74
2024/04/10 07:38:46;;;;;;;15.65;3.20;;;8.80;1.00;;;;;;5482122;26;20078;-75
2024/04/10 07:41:12;;;;;;;11.77;2.35;;;9.10;1.00;;;;;;5482081;26;19994;-76
2024/04/10 07:43:38;;;;;;;11.57;2.40;;;9.10;1.00;;;;;;5481705;26;20002;-71
2024/04/10 07:46:14;;;;;;;14.50;2.22;;;9.30;99.90;;;;;;5481254;26;19994;-73
2024/04/10 07:48:42;;;;;;;8.55;2.47;;;9.10;99.90;;;;;;5478157;26;19998;-74
2024/04/10 07:51:10;;;;;;;14.10;2.83;;;9.00;99.90;;;;;;5481015;26;20070;-73
2024/04/10 07:53:37;;;;;;;16.17;3.83;;;9.60;99.90;;;;;;5480017;26;20014;-73
2024/04/10 07:56:04;;;;;;;13.60;3.58;;;9.60;99.90;;;;;;5471710;26;20035;-73
2024/04/10 07:58:31;;;;;;;20.73;3.15;;;9.40;99.90;;;;;;5480401;26;19998;-73
2024/04/10 08:00:58;;;;;;;16.00;3.30;;;9.10;99.90;;;;;;5470109;26;19998;-72
2024/04/10 08:03:25;;;;;;;10.25;3.03;;;9.80;99.90;;;;;;5483009;26;19999;-74
2024/04/10 08:05:51;;;;;;;11.82;3.45;;;9.90;99.90;;;;;;5485163;26;20001;-72
2024/04/10 08:08:18;;;;;;;11.77;3.13;;;9.50;99.90;;;;;;5482412;26;20002;-72
2024/04/10 08:10:43;;;;;;;20.52;3.50;;;9.50;99.90;;;;;;5479426;26;20003;-72
2024/04/10 08:13:10;;;;;;;19.02;3.83;;;9.20;99.90;;;;;;5469996;26;20017;-72
2024/04/10 08:15:37;;;;;;;14.57;3.65;;;9.20;99.90;;;;;;5482515;26;20006;-72
2024/04/10 08:18:02;;;;;;;14.07;3.20;;;9.50;99.90;;;;;;5457469;26;20006;-72
2024/04/10 08:20:28;;;;;;;11.65;3.17;;;9.70;99.90;;;;;;5481586;26;20033;-72
2024/04/10 08:22:54;;;;;;;13.85;3.08;;;9.50;99.90;;;;;;5482518;26;20009;-72
2024/04/10 08:25:19;;;;;;;12.48;3.45;;;9.10;99.90;;;;;;5482511;26;19994;-73
2024/04/10 08:27:45;;;;;;;12.98;3.42;;;9.40;99.90;;;;;;5484564;26;19994;-72
2024/04/10 08:30:11;;;;;;;17.20;3.80;;;10.00;99.90;;;;;;5481827;26;19998;-72
2024/04/10 08:32:37;;;;;;;9.60;3.53;;;10.00;99.90;;;;;;5483502;26;20013;-72
2024/04/10 08:35:04;;;;;;;13.75;3.00;;;9.80;99.90;;;;;;5483720;26;20518;-72
2024/04/10 08:37:30;;;;;;;9.02;3.38;;;9.50;99.90;;;;;;5482830;26;19998;-72
2024/04/10 08:39:56;;;;;;;10.32;3.00;;;9.30;99.90;;;;;;5473351;26;20032;-72
2024/04/10 08:42:23;;;;;;;12.82;2.97;;;9.40;99.90;;;;;;5467867;26;20471;-72
2024/04/10 08:44:51;;;;;;;16.67;2.83;;;9.70;99.90;;;;;;5483874;26;20010;-72
2024/04/10 08:47:19;;;;;;;8.15;2.50;;;9.90;99.90;;;;;;5482248;26;20002;-72
2024/04/10 08:49:44;;;;;;;13.32;2.67;;;10.10;99.90;;;;;;5480942;26;20056;-72
2024/04/10 08:52:12;;;;;;;14.93;2.70;;;10.50;99.90;;;;;;5483768;26;20014;-71
2024/04/10 08:54:38;;;;;;;9.95;2.30;;;10.90;99.90;;;;;;5484354;26;19998;-72
2024/04/10 08:57:04;;;;;;;14.27;2.83;;;11.20;99.90;;;;;;5483620;26;20015;-73
2024/04/10 08:59:31;;;;;;;11.40;2.20;;;11.50;99.90;;;;;;5482030;26;19998;-73
2024/04/10 09:02:01;;;;;;;8.30;2.40;;;11.50;99.90;;;;;;5480819;26;20070;-73
2024/04/10 09:04:27;;;;;;;10.25;2.58;;;10.80;99.90;;;;;;5482654;26;20065;-72
2024/04/10 09:07:03;;;;;;;15.15;3.45;;;11.30;99.90;;;;;;5483860;26;20001;-73
2024/04/10 09:09:29;;;;;;;8.68;2.75;;;11.00;99.90;;;;;;5477616;26;20009;-72
2024/04/10 09:11:55;;;;;;;12.60;2.50;;;11.40;99.90;;;;;;5483062;26;20626;-73
2024/04/10 09:14:20;;;;;;;8.60;2.40;;;12.10;99.90;;;;;;5483384;26;20013;-73
2024/04/10 09:16:46;;;;;;;8.85;2.10;;;12.30;99.90;;;;;;5481472;26;20711;-73
2024/04/10 09:19:13;;;;;;;11.95;2.80;;;12.90;99.90;;;;;;5482822;26;20458;-71
2024/04/10 09:21:40;;;;;;;10.10;2.25;;;13.60;99.90;;;;;;5483760;26;19990;-72
2024/04/10 09:24:07;;;;;;;9.50;2.15;;;13.10;99.90;;;;;;5483793;26;19991;-72
2024/04/10 09:26:35;;;;;;;9.73;2.50;;;12.80;99.90;;;;;;5482923;26;20095;-73
2024/04/10 09:29:05;;;;;;;7.00;2.22;;;12.30;99.90;;;;;;5483249;26;19994;-72
2024/04/10 09:31:31;;;;;;;7.75;2.03;;;13.20;93.30;;;;;;5482125;26;19998;-73
2024/04/10 09:33:57;;;;;;;9.32;2.40;;;13.80;62.80;;;;;;5480179;26;20018;-73
2024/04/10 09:36:23;;;;;;;7.50;1.92;;;13.90;99.90;;;;;;5482443;26;20074;-72
2024/04/10 09:38:50;;;;;;;9.20;2.97;;;13.20;76.70;;;;;;5483290;26;19994;-72
2024/04/10 09:41:16;;;;;;;6.18;2.53;;;12.90;99.00;;;;;;5475889;26;19998;-73
2024/04/10 09:43:45;;;;;;;13.43;3.22;;;12.00;99.90;;;;;;5481257;26;19994;-71
2024/04/10 09:46:11;;;;;;;12.63;4.05;;;11.50;99.90;;;;;;5479302;26;20008;-72
2024/04/10 09:48:40;;;;;;;12.65;4.07;;;11.00;99.90;;;;;;5480849;26;19994;-73
2024/04/10 09:51:10;;;;;;;16.50;5.03;;;11.00;99.90;;;;;;5483994;26;20002;-70
2024/04/10 09:53:36;;;;;;;19.80;5.70;;;10.80;99.90;;;;;;5481443;26;20679;-71
2024/04/10 09:56:07;;;;;;;19.40;6.80;;;11.10;99.90;;;;;;5481960;26;20001;-72
2024/04/10 09:58:34;;;;;;;18.10;7.35;;;12.00;99.90;;;;;;5481891;26;20009;-72
2024/04/10 10:01:04;;;;;;;16.55;7.43;;;12.50;99.90;;;;;;5482486;26;19998;-71
2024/04/10 10:03:30;;;;;;;12.80;7.13;;;12.70;99.90;;;;;;5488616;26;20376;-72
2024/04/10 10:06:06;;;;;;;20.45;6.78;;;12.50;99.90;;;;;;5479855;26;20013;-74
2024/04/10 10:08:36;;;;;;;15.75;5.70;;;11.80;99.90;;;;;;5473207;26;19998;-72
2024/04/10 10:11:05;;;;;;;12.70;5.97;;;11.40;99.90;;;;;;5482658;26;20451;-71
2024/04/10 10:13:41;;;;;;;18.88;5.97;;;11.00;99.90;;;;;;5482247;26;19994;-72
2024/04/10 10:16:08;;;;;;;13.15;4.55;;;11.30;99.90;;;;;;5481661;26;19998;-71
2024/04/10 10:18:34;;;;;;;11.32;3.50;;;12.50;99.90;;;;;;5480775;26;20676;-72
2024/04/10 10:21:10;;;;;;;12.10;3.70;;;13.00;99.90;;;;;;5482769;26;20010;-71
2024/04/10 10:23:37;;;;;;;12.15;3.90;;;13.20;99.90;;;;;;5465013;26;20033;-72
2024/04/10 10:26:03;;;;;;;11.75;3.42;;;13.70;99.90;;;;;;5481200;26;20340;-71
2024/04/10 10:28:31;;;;;;;5.68;1.90;;;14.20;73.90;;;;;;5481143;26;19994;-72
2024/04/10 10:31:14;;;;;;;7.53;2.00;;;14.70;1.00;;;;;;5482064;26;19998;-72
2024/04/10 10:33:41;;;;;;;6.68;1.55;;;15.80;99.90;;;;;;5480890;26;20072;-72
2024/04/10 10:36:07;;;;;;;11.90;1.92;;;15.30;99.90;;;;;;5481742;26;19998;-72
2024/04/10 10:38:33;;;;;;;8.15;2.25;;;14.70;99.90;;;;;;5482019;26;19998;-72
2024/04/10 10:41:09;;;;;;;8.38;1.92;;;16.10;99.90;;;;;;5482109;26;20505;-72
2024/04/10 10:43:36;;;;;;;7.75;3.10;;;15.00;99.90;;;;;;5463605;26;20025;-72
2024/04/10 10:46:03;;;;;;;4.55;2.03;;;14.20;99.90;;;;;;5481912;26;19998;-72
2024/04/10 10:48:31;;;;;;;13.77;1.90;;;14.40;99.90;;;;;;5480230;26;19994;-72
2024/04/10 10:50:57;;;;;;;5.78;1.67;;;14.00;99.90;;;;;;5484828;26;20022;-73
2024/04/10 10:53:24;;;;;;;9.88;2.25;;;13.60;99.90;;;;;;5481035;26;19998;-72
2024/04/10 10:55:51;;;;;;;9.25;1.58;;;13.30;1.00;;;;;;5480480;26;19998;-72
2024/04/10 10:58:17;;;;;;;9.00;1.92;;;13.00;99.90;;;;;;5480150;26;19998;-71
2024/04/10 11:00:42;;;;;;;4.55;1.58;;;14.80;33.50;;;;;;5480411;26;20471;-71
2024/04/10 11:03:11;;;;;;;4.72;1.40;;;16.90;99.90;;;;;;5478908;26;20010;-72
2024/04/10 11:05:38;;;;;;;3.97;1.60;;;15.20;99.90;;;;;;5481425;26;20002;-72
2024/04/10 11:08:04;;;;;;;4.88;1.52;;;14.70;99.90;;;;;;5481776;26;20536;-72
2024/04/10 11:10:30;;;;;;;5.95;1.38;;;16.30;99.90;;;;;;5480961;26;20006;-72
2024/04/10 11:13:02;;;;;;;6.43;1.30;;;16.80;77.90;;;;;;5481300;26;20078;-72
2024/04/10 11:15:28;;;;;;;5.50;1.30;;;15.90;99.90;;;;;;5478815;26;19994;-73
2024/04/10 11:18:04;;;;;;;4.70;1.10;;;16.40;99.90;;;;;;5477864;26;20002;-72
2024/04/10 11:20:31;;;;;;;4.18;1.75;;;16.90;99.90;;;;;;5478373;26;20017;-72
2024/04/10 11:23:04;;;;;;;2.72;1.10;;;14.00;99.90;;;;;;5478352;26;19998;-72
2024/04/10 11:25:30;;;;;;;9.90;1.52;;;13.00;99.90;;;;;;5477947;26;19998;-72
2024/04/10 11:27:57;;;;;;;7.43;1.88;;;12.40;99.90;;;;;;5477867;26;20648;-72
2024/04/10 11:30:24;;;;;;;4.97;1.40;;;12.60;92.10;;;;;;5478337;26;20002;-72
2024/04/10 11:32:51;;;;;;;5.88;2.00;;;14.30;99.90;;;;;;5473122;26;20006;-72
2024/04/10 11:35:16;;;;;;;8.48;1.55;;;14.90;99.90;;;;;;5477869;26;19998;-72
2024/04/10 11:37:42;;;;;;;7.10;1.67;;;15.50;99.90;;;;;;5483212;26;20017;-72
2024/04/10 11:40:11;;;;;;;6.70;1.25;;;16.30;99.90;;;;;;5482737;26;20108;-72
2024/04/10 11:42:38;;;;;;;6.88;1.50;;;16.00;99.90;;;;;;5471955;26;19998;-72
2024/04/10 11:45:07;;;;;;;5.03;1.15;;;16.00;99.90;;;;;;5483012;26;20013;-72
2024/04/10 11:47:36;;;;;;;8.20;1.40;;;17.10;99.90;;;;;;5481390;26;19998;-72
2024/04/10 11:50:04;;;;;;;6.47;1.42;;;17.60;99.90;;;;;;5489257;26;20002;-72
2024/04/10 11:52:31;;;;;;;7.55;1.50;;;17.30;98.70;;;;;;5480699;26;20009;-72
2024/04/10 11:54:58;;;;;;;12.70;1.50;;;17.70;34.50;;;;;;5481894;26;20010;-71
2024/04/10 11:57:24;;;;;;;5.28;1.90;;;17.00;5.50;;;;;;5474569;26;19994;-72
2024/04/10 11:59:49;;;;;;;5.38;1.60;;;15.70;99.90;;;;;;5471610;26;19998;-72
2024/04/10 12:02:15;;;;;;;5.93;1.40;;;16.40;99.90;;;;;;5480486;26;20013;-72
2024/04/10 12:04:41;;;;;;;4.55;1.45;;;18.90;70.80;;;;;;5476270;26;20005;-71
2024/04/10 12:07:07;;;;;;;4.93;1.17;;;18.70;1.00;;;;;;5463729;26;20072;-72
2024/04/10 12:09:33;;;;;;;4.85;1.33;;;16.80;81.30;;;;;;5482661;26;20006;-73
2024/04/10 12:11:59;;;;;;;6.85;1.52;;;15.50;99.90;;;;;;5483746;26;20113;-72
2024/04/10 12:14:24;;;;;;;5.63;1.27;;;14.50;99.90;;;;;;5482734;26;20008;-72
2024/04/10 12:16:50;;;;;;;4.20;1.20;;;14.30;99.90;;;;;;5482932;26;20001;-72
2024/04/10 12:19:16;;;;;;;7.10;1.45;;;13.90;99.90;;;;;;5482933;26;19998;-74
2024/04/10 12:21:43;;;;;;;10.05;1.60;;;13.70;99.90;;;;;;5484475;26;20006;-72
2024/04/10 12:24:08;;;;;;;11.55;1.52;;;13.60;99.90;;;;;;5483600;26;20707;-73
2024/04/10 12:26:34;;;;;;;3.28;1.50;;;13.40;99.90;;;;;;5483327;26;20013;-73
2024/04/10 12:29:00;;;;;;;2.30;1.23;;;13.30;99.90;;;;;;5483017;26;20698;-73
2024/04/10 12:31:26;;;;;;;9.95;1.70;;;13.30;99.90;;;;;;5482655;26;20027;-73
2024/04/10 12:33:52;;;;;;;5.57;1.30;;;13.40;99.90;;;;;;5483582;26;19994;-73
2024/04/10 12:39:04;;;;;;;4.63;1.45;;;13.30;99.90;;;;;;5484191;26;20017;-72
2024/04/10 12:41:30;;;;;;;4.53;1.70;;;12.80;99.90;;;;;;5483495;26;19994;-73
2024/04/10 12:43:58;;;;;;;8.43;1.85;;;12.50;11.40;;;;;;5464033;26;20085;-73
2024/04/10 12:46:27;;;;;;;17.35;1.38;;;13.80;1.00;;;;;;5479508;26;20347;-75
2024/04/10 12:48:53;;;;;;;3.13;1.00;;;13.70;99.90;;;;;;5483549;26;20009;-74
2024/04/10 12:51:19;;;;;;;4.38;1.27;;;13.90;99.90;;;;;;5483014;26;19997;-72
2024/04/10 12:53:45;;;;;;;5.35;1.10;;;14.40;99.90;;;;;;5483680;26;20102;-73